This is the latest recevied weather packets stored in our database for station/object DL3CSM-13. If no packets are shown the sender has not sent any weather packets the latest 10 day(s).
| Time | Temp. | Humidity | Pressure | Rain* | Wind** | Luminosity | Snow |
|---|---|---|---|---|---|---|---|
| 1777233612 | 12.22° C | 52% | 1022.4 hPa | 0 mm | - | - | - |
| 1777232712 | 12.78° C | 46% | 1022.4 hPa | 0 mm | - | - | - |
| 1777231811 | 13.33° C | 46% | 1022.3 hPa | 0 mm | - | - | - |
| 1777230011 | 14.44° C | 44% | 1022.1 hPa | 0 mm | - | - | - |
| 1777229112 | 15° C | 44% | 1021.9 hPa | 0 mm | - | - | - |
| 1777228211 | 15.56° C | 42% | 1021.7 hPa | 0 mm | - | - | - |
| 1777227311 | 16.11° C | 41% | 1021.5 hPa | 0 mm | - | - | - |
| 1777226411 | 16.11° C | 39% | 1021.3 hPa | 0 mm | - | - | - |
| 1777225511 | 16.67° C | 37% | 1021.2 hPa | 0 mm | - | - | - |
| 1777224611 | 17.22° C | 37% | 1021.2 hPa | 0 mm | - | - | - |
| 1777223712 | 17.22° C | 38% | 1021.1 hPa | 0 mm | - | - | - |
| 1777222812 | 17.22° C | 39% | 1021.2 hPa | 0 mm | - | - | - |
| 1777221912 | 17.78° C | 37% | 1021.2 hPa | 0 mm | - | - | - |
| 1777221011 | 17.78° C | 36% | 1021.3 hPa | 0 mm | - | - | - |
| 1777220111 | 17.78° C | 35% | 1021.4 hPa | 0 mm | - | - | - |
| 1777132908 | 23.33° C | 23% | 1016.1 hPa | 0 mm | - | - | - |
| 1777132811 | 23.33° C | 23% | 1016.1 hPa | 0 mm | - | - | - |
| 1777131011 | 23.33° C | 23% | 1016 hPa | 0 mm | - | - | - |
| 1777130111 | 23.89° C | 22% | 1016.1 hPa | 0 mm | - | - | - |
| 1777129211 | 23.33° C | 24% | 1016 hPa | 0 mm | - | - | - |
| 1777128311 | 23.89° C | 25% | 1016.1 hPa | 0 mm | - | - | - |
| 1777127411 | 23.89° C | 25% | 1016.3 hPa | 0 mm | - | - | - |
| 1777126511 | 22.78° C | 24% | 1016.2 hPa | 0 mm | - | - | - |
| 1777125612 | 22.78° C | 25% | 1016.3 hPa | 0 mm | - | - | - |
| 1777122911 | 22.78° C | 25% | 1016.8 hPa | 0 mm | - | - | - |
* Rain latest hour (hover to see other rain measurements)
** Current wind speed in m/s (hover to see current wind gust speed)